createdAt,value
2019-02-09T00:01:01.684Z,0.50
2019-02-09T00:03:29.040Z,0.60
2019-02-09T00:05:56.296Z,0.50
2019-02-09T00:08:23.562Z,0.40
2019-02-09T00:10:50.836Z,0.40
2019-02-09T00:13:18.086Z,0.40
2019-02-09T00:15:45.562Z,0.40
2019-02-09T00:18:12.786Z,0.40
2019-02-09T00:20:40.051Z,0.40
2019-02-09T00:23:07.448Z,0.30
2019-02-09T00:25:34.820Z,0.30
2019-02-09T00:28:02.070Z,0.30
2019-02-09T00:30:29.329Z,0.20
2019-02-09T00:32:56.475Z,0.20
2019-02-09T00:35:23.775Z,0.10
2019-02-09T00:37:51.068Z,0.10
2019-02-09T00:40:18.539Z,0.10
2019-02-09T00:42:45.900Z,0.10
2019-02-09T00:45:13.466Z,0.20
2019-02-09T00:47:40.754Z,0.20
2019-02-09T00:50:08.433Z,0.20
2019-02-09T00:52:35.697Z,0.30
2019-02-09T00:55:03.878Z,0.30
2019-02-09T00:57:31.153Z,0.30
2019-02-09T00:59:58.404Z,0.30
2019-02-09T01:02:25.627Z,0.30
2019-02-09T01:04:52.898Z,0.20
2019-02-09T01:07:20.108Z,0.20
2019-02-09T01:09:47.256Z,0.10
2019-02-09T01:12:14.430Z,0.10
2019-02-09T01:14:41.685Z,0.00
2019-02-09T01:17:08.826Z,0.00
2019-02-09T01:19:36.072Z,0.00
2019-02-09T01:22:03.334Z,-0.10
2019-02-09T01:24:30.474Z,0.00
2019-02-09T01:26:57.636Z,0.00
2019-02-09T01:29:24.926Z,0.00
2019-02-09T01:31:52.180Z,0.00
2019-02-09T01:34:19.327Z,0.00
2019-02-09T01:36:46.603Z,0.10
2019-02-09T01:39:13.746Z,0.10
2019-02-09T01:41:41.016Z,0.10
2019-02-09T01:44:08.252Z,0.10
2019-02-09T01:46:35.412Z,0.20
2019-02-09T01:49:02.711Z,0.20
2019-02-09T01:51:29.971Z,0.20
2019-02-09T01:53:57.224Z,0.10
2019-02-09T01:56:24.424Z,0.10
2019-02-09T01:58:51.777Z,0.00
2019-02-09T02:01:19.039Z,0.00
2019-02-09T02:03:46.258Z,-0.10
2019-02-09T02:06:13.598Z,-0.10
2019-02-09T02:08:40.835Z,-0.20
2019-02-09T02:11:08.085Z,-0.20
2019-02-09T02:13:35.449Z,-0.30
2019-02-09T02:16:03.123Z,-0.40
2019-02-09T02:18:30.264Z,-0.50
2019-02-09T02:20:57.425Z,-0.60
2019-02-09T02:23:24.548Z,-0.60
2019-02-09T02:25:51.831Z,-0.60
2019-02-09T02:28:19.078Z,-0.70
2019-02-09T02:30:46.330Z,-0.70
2019-02-09T02:33:13.724Z,-0.60
2019-02-09T02:35:40.960Z,-0.60
2019-02-09T02:38:08.258Z,-0.60
2019-02-09T02:40:35.822Z,-0.60
2019-02-09T02:43:03.552Z,-0.50
2019-02-09T02:45:30.719Z,-0.40
2019-02-09T02:47:57.966Z,-0.40
2019-02-09T02:50:25.207Z,-0.50
2019-02-09T02:52:52.581Z,-0.50
2019-02-09T02:55:21.480Z,-0.50
2019-02-09T02:57:50.269Z,-0.50
2019-02-09T03:00:31.614Z,-0.50
2019-02-09T03:02:53.026Z,-0.50
2019-02-09T03:05:20.873Z,-0.40
2019-02-09T03:07:48.131Z,-0.20
2019-02-09T03:10:15.688Z,0.10
2019-02-09T03:12:43.029Z,0.30
2019-02-09T03:15:15.887Z,0.40
2019-02-09T03:17:43.026Z,0.40
2019-02-09T03:20:11.893Z,0.40
2019-02-09T03:22:39.153Z,0.40
2019-02-09T03:25:08.245Z,0.40
2019-02-09T03:27:35.577Z,0.50
2019-02-09T03:30:03.915Z,0.50
2019-02-09T03:32:31.170Z,0.60
2019-02-09T03:34:58.339Z,0.60
2019-02-09T03:37:25.477Z,0.60
2019-02-09T03:39:52.734Z,0.60
2019-02-09T03:42:19.982Z,0.50
2019-02-09T03:44:47.244Z,0.40
2019-02-09T03:47:14.492Z,0.30
2019-02-09T03:49:41.724Z,0.30
2019-02-09T03:52:09.002Z,0.20
2019-02-09T03:54:36.209Z,0.10
2019-02-09T03:57:03.374Z,0.10
2019-02-09T03:59:30.490Z,0.10
2019-02-09T04:01:57.643Z,0.20
2019-02-09T04:04:25.004Z,0.40
2019-02-09T04:06:52.356Z,0.40
2019-02-09T04:09:20.004Z,0.40
2019-02-09T04:11:47.368Z,0.50
2019-02-09T04:14:14.618Z,0.60
2019-02-09T04:16:41.774Z,0.60
2019-02-09T04:19:09.037Z,0.70
2019-02-09T04:21:36.233Z,0.80
2019-02-09T04:24:03.556Z,0.90
2019-02-09T04:26:30.865Z,1.00
2019-02-09T04:28:58.102Z,1.10
2019-02-09T04:31:25.377Z,1.20
2019-02-09T04:33:52.644Z,1.20
2019-02-09T04:36:19.903Z,1.30
2019-02-09T04:38:47.129Z,1.30
2019-02-09T04:41:14.388Z,1.40
2019-02-09T04:43:41.625Z,1.50
2019-02-09T04:46:08.909Z,1.60
2019-02-09T04:48:36.225Z,1.70
2019-02-09T04:51:03.481Z,1.70
2019-02-09T04:53:30.753Z,1.60
2019-02-09T04:55:57.994Z,1.60
2019-02-09T04:58:25.134Z,1.50
2019-02-09T05:00:52.360Z,1.50
2019-02-09T05:03:19.637Z,1.60
2019-02-09T05:05:46.884Z,1.60
2019-02-09T05:08:14.152Z,1.70
2019-02-09T05:10:41.396Z,1.80
2019-02-09T05:13:08.747Z,1.90
2019-02-09T05:15:35.966Z,1.90
2019-02-09T05:18:03.094Z,2.00
2019-02-09T05:20:30.359Z,2.10
2019-02-09T05:22:57.619Z,2.20
2019-02-09T05:25:24.786Z,2.20
2019-02-09T05:27:52.035Z,2.20
2019-02-09T05:30:21.190Z,2.30
2019-02-09T05:32:48.439Z,2.20
2019-02-09T05:35:15.821Z,2.20
2019-02-09T05:37:43.095Z,2.30
2019-02-09T05:40:11.940Z,2.70
2019-02-09T05:42:39.102Z,3.00
2019-02-09T05:45:08.384Z,3.10
2019-02-09T05:47:35.616Z,3.20
2019-02-09T05:50:03.895Z,3.30
2019-02-09T05:52:31.140Z,3.30
2019-02-09T05:54:58.410Z,3.30
2019-02-09T05:57:25.558Z,3.40
2019-02-09T05:59:52.707Z,3.40
2019-02-09T06:02:19.944Z,3.40
2019-02-09T06:04:47.119Z,3.30
2019-02-09T06:07:14.436Z,3.30
2019-02-09T06:09:41.697Z,3.40
2019-02-09T06:12:08.958Z,3.40
2019-02-09T06:14:36.130Z,3.50
2019-02-09T06:17:03.392Z,3.50
2019-02-09T06:19:30.661Z,3.60
2019-02-09T06:21:57.820Z,3.80
2019-02-09T06:24:25.091Z,3.90
2019-02-09T06:26:52.351Z,4.00
2019-02-09T06:29:19.499Z,4.00
2019-02-09T06:31:46.735Z,3.90
2019-02-09T06:34:13.875Z,3.90
2019-02-09T06:36:41.061Z,3.90
2019-02-09T06:39:08.276Z,3.90
2019-02-09T06:41:35.553Z,3.90
2019-02-09T06:44:02.718Z,4.00
2019-02-09T06:46:29.850Z,4.30
2019-02-09T06:48:57.106Z,4.50
2019-02-09T06:51:24.336Z,4.60
2019-02-09T06:53:51.588Z,4.60
2019-02-09T06:56:18.820Z,4.60
2019-02-09T06:58:46.137Z,4.70
2019-02-09T07:01:13.371Z,4.70
2019-02-09T07:03:40.711Z,4.60
2019-02-09T07:06:07.947Z,4.60
2019-02-09T07:08:35.215Z,4.50
2019-02-09T07:11:02.476Z,4.60
2019-02-09T07:13:29.759Z,4.70
2019-02-09T07:15:57.023Z,4.80
2019-02-09T07:18:24.310Z,5.00
2019-02-09T07:20:51.484Z,5.20
2019-02-09T07:23:18.763Z,5.30
2019-02-09T07:25:45.942Z,5.40
2019-02-09T07:28:13.159Z,5.40
2019-02-09T07:30:40.490Z,5.50
2019-02-09T07:33:08.114Z,5.60
2019-02-09T07:35:35.347Z,5.70
2019-02-09T07:38:03.110Z,5.80
2019-02-09T07:40:30.369Z,5.80
2019-02-09T07:42:57.609Z,5.90
2019-02-09T07:45:25.258Z,5.90
2019-02-09T07:47:52.494Z,6.00
2019-02-09T07:50:20.387Z,6.00
2019-02-09T07:52:47.504Z,6.10
2019-02-09T07:55:14.827Z,6.20
2019-02-09T07:57:42.868Z,6.30
2019-02-09T08:00:15.370Z,6.30
2019-02-09T08:02:42.635Z,6.40
2019-02-09T08:05:10.607Z,6.50
2019-02-09T08:07:37.768Z,6.60
2019-02-09T08:10:06.682Z,6.60
2019-02-09T08:12:33.965Z,6.70
2019-02-09T08:15:01.232Z,6.70
2019-02-09T08:17:28.421Z,6.60
2019-02-09T08:19:55.786Z,6.60
2019-02-09T08:22:23.060Z,6.60
2019-02-09T08:24:50.303Z,6.80
2019-02-09T08:27:23.393Z,7.00
2019-02-09T08:29:46.603Z,6.90
2019-02-09T08:32:13.825Z,7.00
2019-02-09T08:34:41.095Z,7.50
2019-02-09T08:37:08.419Z,8.20
2019-02-09T08:39:35.613Z,8.40
2019-02-09T08:42:03.866Z,8.30
2019-02-09T08:44:31.165Z,8.30
2019-02-09T08:46:58.425Z,8.20
2019-02-09T08:49:25.796Z,8.10
2019-02-09T08:51:53.075Z,7.80
2019-02-09T08:54:20.342Z,7.70
2019-02-09T08:56:47.694Z,7.50
2019-02-09T08:59:14.970Z,7.40
2019-02-09T09:01:42.198Z,7.60
2019-02-09T09:04:09.441Z,8.00
2019-02-09T09:06:36.619Z,8.40
2019-02-09T09:09:08.520Z,8.60
2019-02-09T09:11:35.826Z,8.60
2019-02-09T09:14:03.040Z,9.10
2019-02-09T09:16:30.313Z,9.10
2019-02-09T09:18:57.582Z,8.90
2019-02-09T09:21:24.847Z,8.60
2019-02-09T09:23:52.083Z,8.90
2019-02-09T09:26:19.356Z,9.10
2019-02-09T09:28:46.635Z,8.90
2019-02-09T09:33:56.296Z,8.80
2019-02-09T09:36:23.555Z,8.40
2019-02-09T09:38:50.839Z,8.10
2019-02-09T09:41:18.193Z,8.00
2019-02-09T09:43:45.568Z,7.90
2019-02-09T09:46:12.976Z,7.90
2019-02-09T09:48:40.251Z,7.90
2019-02-09T09:51:07.648Z,8.00
2019-02-09T09:53:35.177Z,8.00
2019-02-09T09:56:02.594Z,8.00
2019-02-09T09:58:29.846Z,8.00
2019-02-09T10:00:57.120Z,8.30
2019-02-09T10:03:24.279Z,8.50
2019-02-09T10:05:51.562Z,8.60
2019-02-09T10:08:18.815Z,8.60
2019-02-09T10:10:46.086Z,8.80
2019-02-09T10:13:13.263Z,8.90
2019-02-09T10:15:40.435Z,9.10
2019-02-09T10:18:07.626Z,9.40
2019-02-09T10:20:34.918Z,10.10
2019-02-09T10:23:02.140Z,10.70
2019-02-09T10:25:29.418Z,10.90
2019-02-09T10:27:56.693Z,10.90
2019-02-09T10:30:25.503Z,10.80
2019-02-09T10:32:52.943Z,10.70
2019-02-09T10:35:21.124Z,10.50
2019-02-09T10:37:49.586Z,10.60
2019-02-09T10:40:19.146Z,10.90
2019-02-09T10:42:46.345Z,11.60
2019-02-09T10:45:19.058Z,12.90
2019-02-09T10:47:46.517Z,14.20
2019-02-09T10:50:22.970Z,15.00
2019-02-09T10:52:50.271Z,15.10
2019-02-09T10:55:17.657Z,14.50
2019-02-09T10:57:44.922Z,12.80
2019-02-09T11:00:16.180Z,11.60
2019-02-09T11:02:43.505Z,12.40
2019-02-09T11:05:10.958Z,12.50
2019-02-09T11:07:38.357Z,13.50
2019-02-09T11:10:09.707Z,14.80
2019-02-09T11:15:12.564Z,14.40
2019-02-09T11:17:39.882Z,15.10
2019-02-09T11:20:13.724Z,14.90
2019-02-09T11:22:40.892Z,13.70
2019-02-09T11:25:08.827Z,12.40
2019-02-09T11:27:36.135Z,12.60
2019-02-09T11:30:05.142Z,13.70
2019-02-09T11:32:32.406Z,14.60
2019-02-09T11:34:59.845Z,15.00
2019-02-09T11:37:27.186Z,15.40
2019-02-09T11:39:54.476Z,15.70
2019-02-09T11:42:21.794Z,15.10
2019-02-09T11:44:49.114Z,13.30
2019-02-09T11:47:16.734Z,12.20
2019-02-09T11:49:44.453Z,11.60
2019-02-09T11:52:11.918Z,11.10
2019-02-09T11:54:39.255Z,10.70
2019-02-09T11:57:06.438Z,10.80
2019-02-09T11:59:33.728Z,11.30
2019-02-09T12:02:01.042Z,11.20
2019-02-09T12:04:28.647Z,12.10
2019-02-09T12:06:55.937Z,13.00
2019-02-09T12:09:23.269Z,14.00
2019-02-09T12:11:50.735Z,15.30
2019-02-09T12:14:18.070Z,15.80
2019-02-09T12:16:45.377Z,14.70
2019-02-09T12:19:12.722Z,14.30
2019-02-09T12:21:40.000Z,14.90
2019-02-09T12:24:07.344Z,15.50
2019-02-09T12:26:34.525Z,14.90
2019-02-09T12:29:01.801Z,14.40
2019-02-09T12:31:29.055Z,14.50
2019-02-09T12:33:56.431Z,14.50
2019-02-09T12:36:23.675Z,14.30
2019-02-09T12:38:50.963Z,14.40
2019-02-09T12:41:18.277Z,14.30
2019-02-09T12:43:45.475Z,13.80
2019-02-09T12:46:12.789Z,13.40
2019-02-09T12:48:40.142Z,12.80
2019-02-09T12:51:08.158Z,13.00
2019-02-09T12:53:35.454Z,13.40
2019-02-09T12:56:02.957Z,13.70
2019-02-09T12:58:31.094Z,14.10
2019-02-09T13:00:58.418Z,14.40
2019-02-09T13:03:31.105Z,15.30
2019-02-09T13:05:55.024Z,14.90
2019-02-09T13:08:22.327Z,13.60
2019-02-09T13:10:49.617Z,12.40
2019-02-09T13:13:16.939Z,12.00
2019-02-09T13:15:44.250Z,11.30
2019-02-09T13:18:11.552Z,10.80
2019-02-09T13:20:38.877Z,10.40
2019-02-09T13:23:07.699Z,10.30
2019-02-09T13:25:35.788Z,10.30
2019-02-09T13:28:03.489Z,10.10
2019-02-09T13:30:31.221Z,10.00
2019-02-09T13:32:58.610Z,10.00
2019-02-09T13:35:26.015Z,10.10
2019-02-09T13:37:53.480Z,10.60
2019-02-09T13:40:23.478Z,10.60
2019-02-09T13:42:50.793Z,10.20
2019-02-09T13:45:29.065Z,9.80
2019-02-09T13:47:56.371Z,9.70
2019-02-09T13:50:23.962Z,9.50
2019-02-09T13:52:51.168Z,9.40
2019-02-09T13:55:18.427Z,9.40
2019-02-09T13:57:45.812Z,9.50
2019-02-09T14:00:20.487Z,9.50
2019-02-09T14:02:48.135Z,9.60
2019-02-09T14:05:15.527Z,9.50
2019-02-09T14:07:42.872Z,9.40
2019-02-09T14:10:11.562Z,9.30
2019-02-09T14:12:39.089Z,9.20
2019-02-09T14:15:09.041Z,9.20
2019-02-09T14:17:36.332Z,9.20
2019-02-09T14:20:04.391Z,9.20
2019-02-09T14:22:31.627Z,9.20
2019-02-09T14:24:58.818Z,9.10
2019-02-09T14:27:26.472Z,9.00
2019-02-09T14:29:53.782Z,8.90
2019-02-09T14:32:20.938Z,8.90
2019-02-09T14:34:48.123Z,8.80
2019-02-09T14:37:15.236Z,8.80
2019-02-09T14:39:42.508Z,8.70
2019-02-09T14:42:09.829Z,8.70
2019-02-09T14:44:37.135Z,8.70
2019-02-09T14:47:04.379Z,8.70
2019-02-09T14:49:31.635Z,8.60
2019-02-09T14:51:58.941Z,8.50
2019-02-09T14:54:26.207Z,8.50
2019-02-09T14:56:53.483Z,8.50
2019-02-09T14:59:20.712Z,8.40
2019-02-09T15:01:47.971Z,8.40
2019-02-09T15:04:15.223Z,8.40
2019-02-09T15:06:42.447Z,8.50
2019-02-09T15:09:09.733Z,8.40
2019-02-09T15:11:36.992Z,8.40
2019-02-09T15:14:04.376Z,8.30
2019-02-09T15:16:43.680Z,8.30
2019-02-09T15:19:11.024Z,8.30
2019-02-09T15:21:38.254Z,8.20
2019-02-09T15:24:05.505Z,8.10
2019-02-09T15:26:32.720Z,8.10
2019-02-09T15:29:00.011Z,8.10
2019-02-09T15:31:27.334Z,8.10
2019-02-09T15:33:54.573Z,8.00
2019-02-09T15:37:50.875Z,8.00
2019-02-09T15:40:18.499Z,7.90
2019-02-09T15:42:45.827Z,7.90
2019-02-09T15:45:14.388Z,7.90
2019-02-09T15:47:41.650Z,7.80
2019-02-09T15:50:09.659Z,7.80
2019-02-09T15:52:36.792Z,7.70
2019-02-09T15:55:06.177Z,7.70
2019-02-09T15:57:33.416Z,7.60
2019-02-09T16:00:00.607Z,7.60
2019-02-09T16:02:27.923Z,7.60
2019-02-09T16:04:55.045Z,7.50
2019-02-09T16:07:22.335Z,7.50
2019-02-09T16:09:49.590Z,7.50
2019-02-09T16:12:16.760Z,7.50
2019-02-09T16:14:44.049Z,7.60
2019-02-09T16:17:11.292Z,7.50
2019-02-09T16:19:38.467Z,7.50
2019-02-09T16:22:05.770Z,7.50
2019-02-09T16:24:33.354Z,7.50
2019-02-09T16:27:00.647Z,7.40
2019-02-09T16:29:27.873Z,7.40
2019-02-09T16:31:55.053Z,7.40
2019-02-09T16:34:25.478Z,7.40
2019-02-09T16:36:51.452Z,7.40
2019-02-09T16:39:18.695Z,7.40
2019-02-09T16:41:45.962Z,7.40
2019-02-09T16:44:13.364Z,7.40
2019-02-09T16:46:40.493Z,7.40
2019-02-09T16:49:07.754Z,7.30
2019-02-09T16:51:34.984Z,7.30
2019-02-09T16:54:02.239Z,7.20
2019-02-09T16:56:29.537Z,7.10
2019-02-09T16:58:56.831Z,7.10
2019-02-09T17:01:24.083Z,7.10
2019-02-09T17:03:51.305Z,7.10
2019-02-09T17:06:18.788Z,7.00
2019-02-09T17:08:46.035Z,7.00
2019-02-09T17:11:13.435Z,6.90
2019-02-09T17:13:40.759Z,6.90
2019-02-09T17:16:07.942Z,6.80
2019-02-09T17:18:35.186Z,6.70
2019-02-09T17:21:02.468Z,6.70
2019-02-09T17:23:29.864Z,6.70
2019-02-09T17:25:57.147Z,6.70
2019-02-09T17:28:24.453Z,6.70
2019-02-09T17:30:51.809Z,6.60
2019-02-09T17:33:19.086Z,6.60
2019-02-09T17:35:46.265Z,6.60
2019-02-09T17:38:13.566Z,6.60
2019-02-09T17:40:43.407Z,6.50
2019-02-09T17:43:10.954Z,6.60
2019-02-09T17:45:50.589Z,6.60
2019-02-09T17:48:18.070Z,6.50
2019-02-09T17:50:45.328Z,6.50
2019-02-09T17:53:14.638Z,6.60
2019-02-09T17:55:41.932Z,6.50
2019-02-09T17:58:09.178Z,6.50
2019-02-09T18:00:39.951Z,6.50
2019-02-09T18:03:07.287Z,6.50
2019-02-09T18:05:34.834Z,6.50
2019-02-09T18:08:02.155Z,6.60
2019-02-09T18:10:29.445Z,6.60
2019-02-09T18:12:56.868Z,6.60
2019-02-09T18:15:24.230Z,6.50
2019-02-09T18:17:51.466Z,6.50
2019-02-09T18:20:18.823Z,6.50
2019-02-09T18:22:46.275Z,6.40
2019-02-09T18:25:15.201Z,6.40
2019-02-09T18:27:42.364Z,6.50
2019-02-09T18:30:15.112Z,6.50
2019-02-09T18:32:42.344Z,6.50
2019-02-09T18:35:09.721Z,6.50
2019-02-09T18:37:36.979Z,6.60
2019-02-09T18:40:05.343Z,6.60
2019-02-09T18:42:32.648Z,6.60
2019-02-09T18:44:59.882Z,6.50
2019-02-09T18:47:27.133Z,6.50
2019-02-09T18:49:54.531Z,6.50
2019-02-09T18:52:21.763Z,6.60
2019-02-09T18:54:48.939Z,6.60
2019-02-09T18:57:16.175Z,6.50
2019-02-09T18:59:43.454Z,6.50
2019-02-09T19:02:10.713Z,6.50
2019-02-09T19:04:37.985Z,6.50
2019-02-09T19:07:05.451Z,6.50
2019-02-09T19:09:32.795Z,6.50
2019-02-09T19:12:00.078Z,6.60
2019-02-09T19:14:27.330Z,6.60
2019-02-09T19:16:54.729Z,6.60
2019-02-09T19:19:21.976Z,6.60
2019-02-09T19:21:49.524Z,6.60
2019-02-09T19:24:16.836Z,6.60
2019-02-09T19:26:44.116Z,6.60
2019-02-09T19:29:11.379Z,6.60
2019-02-09T19:31:38.714Z,6.50
2019-02-09T19:34:06.259Z,6.50
2019-02-09T19:36:33.540Z,6.50
2019-02-09T19:39:00.796Z,6.50
2019-02-09T19:41:28.056Z,6.50
2019-02-09T19:43:55.219Z,6.40
2019-02-09T19:46:22.358Z,6.40
2019-02-09T19:48:49.642Z,6.40
2019-02-09T19:51:16.902Z,6.30
2019-02-09T19:53:44.164Z,6.20
2019-02-09T19:56:11.325Z,6.30
2019-02-09T19:58:38.495Z,6.30
2019-02-09T20:01:05.730Z,6.40
2019-02-09T20:03:32.987Z,6.40
2019-02-09T20:06:00.154Z,6.40
2019-02-09T20:08:27.307Z,6.40
2019-02-09T20:10:54.701Z,6.50
2019-02-09T20:13:22.057Z,6.50
2019-02-09T20:15:49.316Z,6.40
2019-02-09T20:20:50.499Z,6.30
2019-02-09T20:23:17.842Z,6.30
2019-02-09T20:25:45.179Z,6.30
2019-02-09T20:28:12.453Z,6.20
2019-02-09T20:30:39.945Z,6.10
2019-02-09T20:33:08.108Z,6.10
2019-02-09T20:35:35.444Z,6.20
2019-02-09T20:38:03.269Z,6.20
2019-02-09T20:40:36.034Z,6.20
2019-02-09T20:43:04.478Z,6.20
2019-02-09T20:45:31.749Z,6.20
2019-02-09T20:47:59.151Z,6.20
2019-02-09T20:50:26.408Z,6.20
2019-02-09T20:52:53.822Z,6.20
2019-02-09T20:55:21.352Z,6.30
2019-02-09T20:57:48.820Z,6.30
2019-02-09T21:00:18.614Z,6.20
2019-02-09T21:02:46.549Z,6.20
2019-02-09T21:05:14.193Z,6.20
2019-02-09T21:07:41.754Z,6.20
2019-02-09T21:10:15.831Z,6.20
2019-02-09T21:12:43.434Z,6.20
2019-02-09T21:15:11.659Z,6.30
2019-02-09T21:17:38.927Z,6.30
2019-02-09T21:20:06.467Z,6.20
2019-02-09T21:22:36.003Z,6.20
2019-02-09T21:25:04.607Z,6.20
2019-02-09T21:27:31.910Z,6.20
2019-02-09T21:29:59.184Z,6.20
2019-02-09T21:32:26.323Z,6.10
2019-02-09T21:34:53.604Z,6.20
2019-02-09T21:37:20.830Z,6.10
2019-02-09T21:39:48.131Z,6.10
2019-02-09T21:42:15.406Z,6.00
2019-02-09T21:44:42.551Z,6.00
2019-02-09T21:47:09.777Z,6.00
2019-02-09T21:49:37.149Z,5.90
2019-02-09T21:52:04.422Z,5.90
2019-02-09T21:54:31.716Z,5.90
2019-02-09T21:56:58.984Z,5.90
2019-02-09T21:59:26.264Z,5.90
2019-02-09T22:01:53.458Z,5.90
2019-02-09T22:04:20.741Z,5.90
2019-02-09T22:06:48.639Z,5.90
2019-02-09T22:09:16.738Z,5.90
2019-02-09T22:11:44.212Z,5.90
2019-02-09T22:14:12.097Z,6.00
2019-02-09T22:16:39.759Z,6.10
2019-02-09T22:19:07.086Z,6.10
2019-02-09T22:21:34.439Z,6.00
2019-02-09T22:24:01.730Z,6.00
2019-02-09T22:26:28.959Z,6.00
2019-02-09T22:28:56.237Z,6.00
2019-02-09T22:31:23.522Z,6.00
2019-02-09T22:33:50.760Z,6.00
2019-02-09T22:36:17.996Z,6.00
2019-02-09T22:38:45.276Z,6.00
2019-02-09T22:41:12.531Z,6.10
2019-02-09T22:43:39.804Z,6.10
2019-02-09T22:46:07.059Z,6.10
2019-02-09T22:48:34.313Z,6.00
2019-02-09T22:51:01.592Z,6.00
2019-02-09T22:53:28.921Z,6.10
2019-02-09T22:55:56.199Z,6.00
2019-02-09T22:58:23.365Z,5.90
2019-02-09T23:01:18.046Z,5.80
2019-02-09T23:04:02.556Z,5.70
2019-02-09T23:07:06.617Z,5.60
2019-02-09T23:09:33.753Z,5.50
2019-02-09T23:12:00.999Z,5.40
2019-02-09T23:14:28.129Z,5.30
2019-02-09T23:16:55.393Z,5.30
2019-02-09T23:19:22.639Z,5.20
2019-02-09T23:21:49.893Z,5.10
2019-02-09T23:24:17.114Z,5.10
2019-02-09T23:26:44.300Z,5.00
2019-02-09T23:29:11.613Z,4.90
2019-02-09T23:31:38.886Z,4.90
2019-02-09T23:34:06.103Z,4.90
2019-02-09T23:36:33.366Z,4.80
2019-02-09T23:39:00.634Z,4.80
2019-02-09T23:41:27.927Z,4.70
2019-02-09T23:43:55.665Z,4.60
2019-02-09T23:46:23.353Z,4.60
2019-02-09T23:48:50.776Z,4.50
2019-02-09T23:51:18.007Z,4.50
2019-02-09T23:53:45.144Z,4.50
2019-02-09T23:56:12.531Z,4.50
2019-02-09T23:58:41.082Z,4.60
